Time;durP1;ratioP1;P1;durP2;ratioP2;P2;SDS_P1;SDS_P2;PMS_P1;PMS_P2;Temp;Humidity;BMP_temperature;BMP_pressure;BME280_temperature;BME280_humidity;BME280_pressure;Samples;Min_cycle;Max_cycle;Signal;HPM_P1;HPM_P2
2023/04/02 00:01:01;;;;;;;6.83;6.23;;;;;;;;;;5073414;28;20185;-67
2023/04/02 00:03:58;;;;;;;6.23;5.63;;;;;;;;;;5055544;28;20188;-67
2023/04/02 00:06:31;;;;;;;7.03;6.30;;;;;;;;;;5073562;28;20174;-68
2023/04/02 00:09:01;;;;;;;8.87;7.00;;;;;;;;;;5073825;28;20682;-67
2023/04/02 00:11:34;;;;;;;6.60;6.00;;;;;;;;;;5055562;28;20611;-67
2023/04/02 00:14:00;;;;;;;6.03;5.53;;;;;;;;;;5073577;28;20194;-68
2023/04/02 00:16:26;;;;;;;6.57;6.00;;;;;;;;;;5055695;28;20528;-67
2023/04/02 00:18:54;;;;;;;6.87;6.20;;;;;;;;;;5076946;28;20193;-67
2023/04/02 00:21:28;;;;;;;6.60;6.00;;;;;;;;;;5077921;28;20181;-68
2023/04/02 00:23:55;;;;;;;6.43;5.83;;;;;;;;;;5077694;28;20708;-67
2023/04/02 00:26:25;;;;;;;6.40;5.90;;;;;;;;;;5059624;28;20185;-67
2023/04/02 00:28:51;;;;;;;6.63;6.03;;;;;;;;;;5077259;28;20193;-66
2023/04/02 00:31:19;;;;;;;7.10;6.50;;;;;;;;;;5077820;28;20181;-68
2023/04/02 00:33:45;;;;;;;6.57;5.97;;;;;;;;;;5059827;28;20639;-67
2023/04/02 00:36:11;;;;;;;7.30;6.70;;;;;;;;;;5077910;28;20178;-67
2023/04/02 00:38:42;;;;;;;7.07;6.47;;;;;;;;;;5059070;28;20205;-68
2023/04/02 00:41:13;;;;;;;7.73;6.93;;;;;;;;;;5059148;28;20173;-68
2023/04/02 00:43:43;;;;;;;9.20;7.07;;;;;;;;;;5077222;28;20528;-67
2023/04/02 00:46:16;;;;;;;7.97;7.17;;;;;;;;;;5059146;28;20643;-68
2023/04/02 00:48:50;;;;;;;7.00;6.40;;;;;;;;;;5076951;28;20259;-67
2023/04/02 00:51:24;;;;;;;7.40;6.70;;;;;;;;;;5077885;28;20186;-67
2023/04/02 00:53:52;;;;;;;7.73;7.03;;;;;;;;;;5077427;28;20267;-67
2023/04/02 00:56:38;;;;;;;7.60;6.97;;;;;;;;;;5059331;28;20652;-68
2023/04/02 00:59:05;;;;;;;8.10;7.30;;;;;;;;;;5077576;28;20226;-67
2023/04/02 01:01:36;;;;;;;10.53;6.97;;;;;;;;;;5076963;28;20365;-67
2023/04/02 01:04:04;;;;;;;8.20;7.50;;;;;;;;;;5076927;28;20174;-68
2023/04/02 01:06:33;;;;;;;9.17;8.30;;;;;;;;;;5076675;28;20174;-67
2023/04/02 01:09:04;;;;;;;7.87;7.17;;;;;;;;;;5076222;28;20272;-67
2023/04/02 01:11:49;;;;;;;9.83;8.40;;;;;;;;;;5076516;28;20178;-67
2023/04/02 01:14:18;;;;;;;8.60;7.80;;;;;;;;;;5076652;28;20196;-68
2023/04/02 01:16:54;;;;;;;7.97;7.17;;;;;;;;;;5058623;28;20186;-69
2023/04/02 01:19:41;;;;;;;8.10;7.40;;;;;;;;;;5058347;28;20666;-67
2023/04/02 01:22:13;;;;;;;7.70;6.90;;;;;;;;;;5076736;28;20635;-67
2023/04/02 01:24:39;;;;;;;9.53;8.13;;;;;;;;;;5058705;28;20181;-67
2023/04/02 01:27:07;;;;;;;8.90;8.10;;;;;;;;;;5076517;28;20174;-67
2023/04/02 01:29:44;;;;;;;9.80;8.80;;;;;;;;;;5076923;28;20196;-69
2023/04/02 01:32:14;;;;;;;8.87;7.57;;;;;;;;;;5076417;28;20308;-67
2023/04/02 01:34:43;;;;;;;7.70;6.93;;;;;;;;;;5076660;28;20162;-67
2023/04/02 01:37:15;;;;;;;7.17;6.47;;;;;;;;;;5076033;28;20180;-67
2023/04/02 01:39:50;;;;;;;7.73;6.97;;;;;;;;;;5076158;28;20213;-67
2023/04/02 01:42:20;;;;;;;7.80;7.00;;;;;;;;;;5057956;28;20188;-67
2023/04/02 01:44:48;;;;;;;7.70;7.03;;;;;;;;;;5076127;28;20208;-67
2023/04/02 01:47:19;;;;;;;8.00;6.83;;;;;;;;;;5058165;28;20195;-67
2023/04/02 01:49:45;;;;;;;7.37;6.67;;;;;;;;;;5076058;28;20194;-67
2023/04/02 01:52:25;;;;;;;7.97;7.17;;;;;;;;;;5058107;28;20197;-68
2023/04/02 01:54:51;;;;;;;6.77;6.23;;;;;;;;;;5058259;28;20189;-65
2023/04/02 01:57:17;;;;;;;7.30;6.60;;;;;;;;;;5058177;28;20208;-67
2023/04/02 01:59:44;;;;;;;6.87;6.27;;;;;;;;;;5075803;28;20627;-66
2023/04/02 02:02:11;;;;;;;5.83;5.07;;;;;;;;;;5058018;28;20178;-67
2023/04/02 02:04:38;;;;;;;5.90;5.30;;;;;;;;;;5076081;28;20684;-67
2023/04/02 02:07:04;;;;;;;5.00;4.60;;;;;;;;;;5081117;28;20174;-67
2023/04/02 02:09:33;;;;;;;5.67;5.17;;;;;;;;;;5067304;28;20687;-67
2023/04/02 02:12:01;;;;;;;5.50;5.00;;;;;;;;;;5086813;28;20185;-66
2023/04/02 02:14:28;;;;;;;5.37;4.97;;;;;;;;;;5086202;28;20189;-68
2023/04/02 02:16:55;;;;;;;5.60;5.00;;;;;;;;;;5080880;28;20623;-67
2023/04/02 02:19:21;;;;;;;5.10;4.70;;;;;;;;;;5057435;28;20206;-67
2023/04/02 02:21:52;;;;;;;5.63;5.13;;;;;;;;;;5057259;28;20183;-69
2023/04/02 02:24:26;;;;;;;5.20;4.70;;;;;;;;;;5075132;28;20670;-69
2023/04/02 02:27:03;;;;;;;5.37;4.93;;;;;;;;;;5075440;28;20624;-67
2023/04/02 02:29:31;;;;;;;4.90;4.50;;;;;;;;;;5075132;28;20197;-68
2023/04/02 02:31:57;;;;;;;5.20;4.77;;;;;;;;;;5075427;28;20173;-67
2023/04/02 02:34:29;;;;;;;5.30;4.80;;;;;;;;;;5078433;28;20178;-67
2023/04/02 02:36:59;;;;;;;6.33;5.10;;;;;;;;;;5096539;28;20159;-67
2023/04/02 02:39:29;;;;;;;6.00;4.87;;;;;;;;;;5078563;28;20193;-67
2023/04/02 02:41:57;;;;;;;5.00;4.60;;;;;;;;;;5081920;28;20185;-67
2023/04/02 02:44:32;;;;;;;4.87;4.10;;;;;;;;;;5076410;28;20174;-69
2023/04/02 02:47:03;;;;;;;4.30;4.00;;;;;;;;;;5075640;28;20248;-67
2023/04/02 02:49:32;;;;;;;3.83;3.20;;;;;;;;;;5075187;28;20189;-67
2023/04/02 02:52:01;;;;;;;3.80;3.50;;;;;;;;;;5074663;28;20169;-67
2023/04/02 02:54:28;;;;;;;4.43;3.40;;;;;;;;;;5074988;28;20174;-67
2023/04/02 02:56:55;;;;;;;4.40;3.93;;;;;;;;;;5056876;28;20631;-67
2023/04/02 02:59:22;;;;;;;3.97;3.40;;;;;;;;;;5056710;28;20205;-67
2023/04/02 03:01:48;;;;;;;4.23;3.83;;;;;;;;;;5074760;28;20181;-67
2023/04/02 03:04:21;;;;;;;4.67;4.07;;;;;;;;;;5074626;28;20173;-67
2023/04/02 03:06:49;;;;;;;3.93;3.60;;;;;;;;;;5074813;28;20183;-67
2023/04/02 03:09:32;;;;;;;6.77;4.37;;;;;;;;;;5074227;28;20627;-67
2023/04/02 03:12:13;;;;;;;4.53;4.13;;;;;;;;;;5056431;28;20201;-68
2023/04/02 03:14:53;;;;;;;4.37;3.80;;;;;;;;;;5074345;28;20181;-67
2023/04/02 03:17:22;;;;;;;5.00;4.60;;;;;;;;;;5056405;28;20183;-67
2023/04/02 03:19:54;;;;;;;4.23;3.83;;;;;;;;;;5055937;28;20193;-67
2023/04/02 03:22:28;;;;;;;5.83;3.80;;;;;;;;;;5056052;28;20182;-68
2023/04/02 03:25:01;;;;;;;4.33;4.03;;;;;;;;;;5056142;28;20617;-67
2023/04/02 03:27:39;;;;;;;4.97;4.47;;;;;;;;;;5056205;28;20265;-67
2023/04/02 03:30:14;;;;;;;4.70;4.30;;;;;;;;;;5074850;28;20728;-67
2023/04/02 03:32:41;;;;;;;5.40;5.00;;;;;;;;;;5074297;28;20229;-68
2023/04/02 03:35:24;;;;;;;5.10;4.70;;;;;;;;;;5074578;28;20197;-67
2023/04/02 03:37:53;;;;;;;4.90;4.50;;;;;;;;;;5074489;28;20173;-67
2023/04/02 03:40:24;;;;;;;5.40;5.00;;;;;;;;;;5073980;28;20267;-67
2023/04/02 03:42:52;;;;;;;5.50;4.60;;;;;;;;;;5056235;28;20174;-67
2023/04/02 03:45:37;;;;;;;4.27;3.87;;;;;;;;;;5075077;28;20183;-67
2023/04/02 03:48:03;;;;;;;4.47;4.07;;;;;;;;;;5074928;28;20667;-67
2023/04/02 03:50:55;;;;;;;4.20;3.80;;;;;;;;;;5056808;28;20231;-67
2023/04/02 03:53:25;;;;;;;5.40;4.60;;;;;;;;;;5052310;28;20255;-67
2023/04/02 03:55:52;;;;;;;5.10;4.57;;;;;;;;;;5073957;28;20599;-67
2023/04/02 03:58:21;;;;;;;5.87;4.93;;;;;;;;;;5055685;28;20176;-67
2023/04/02 04:00:56;;;;;;;5.17;4.63;;;;;;;;;;5055897;28;20178;-67
2023/04/02 04:03:30;;;;;;;5.17;4.70;;;;;;;;;;5055772;28;20185;-67
2023/04/02 04:05:58;;;;;;;5.40;4.80;;;;;;;;;;5074288;28;20174;-67
2023/04/02 04:08:26;;;;;;;5.87;5.33;;;;;;;;;;5056001;28;20216;-68
2023/04/02 04:10:54;;;;;;;5.77;5.27;;;;;;;;;;5073947;28;20205;-67
2023/04/02 04:13:25;;;;;;;6.40;5.80;;;;;;;;;;5073900;28;20193;-67
2023/04/02 04:15:54;;;;;;;7.00;6.30;;;;;;;;;;5074184;28;20166;-67
2023/04/02 04:18:33;;;;;;;7.23;6.37;;;;;;;;;;5055585;28;20181;-66
2023/04/02 04:21:01;;;;;;;10.10;6.20;;;;;;;;;;5073673;28;20158;-67
2023/04/02 04:23:29;;;;;;;8.43;6.77;;;;;;;;;;5055677;28;20192;-68
2023/04/02 04:26:18;;;;;;;8.07;6.17;;;;;;;;;;5073687;28;20197;-67
2023/04/02 04:28:58;;;;;;;7.13;6.43;;;;;;;;;;5073871;28;20278;-67
2023/04/02 04:31:33;;;;;;;8.93;7.97;;;;;;;;;;5073952;28;20632;-67
2023/04/02 04:34:04;;;;;;;8.73;7.93;;;;;;;;;;5073525;28;20234;-67
2023/04/02 04:36:36;;;;;;;9.50;8.50;;;;;;;;;;5087088;28;20162;-67
2023/04/02 04:39:07;;;;;;;9.00;8.10;;;;;;;;;;5078381;28;20306;-67
2023/04/02 04:41:35;;;;;;;8.90;8.07;;;;;;;;;;5082422;28;20192;-67
2023/04/02 04:44:01;;;;;;;9.23;8.23;;;;;;;;;;5081705;28;20182;-67
2023/04/02 04:46:30;;;;;;;9.13;8.13;;;;;;;;;;5075827;28;20174;-68
2023/04/02 04:49:08;;;;;;;8.47;7.67;;;;;;;;;;5073773;28;20209;-67
2023/04/02 04:51:38;;;;;;;8.53;7.53;;;;;;;;;;5073704;28;20170;-67
2023/04/02 04:54:04;;;;;;;9.93;8.10;;;;;;;;;;5073653;28;20186;-67
2023/04/02 04:56:31;;;;;;;10.67;9.07;;;;;;;;;;5073341;28;20174;-67
2023/04/02 04:59:12;;;;;;;8.77;7.30;;;;;;;;;;5073547;28;20640;-67
2023/04/02 05:01:42;;;;;;;13.03;8.63;;;;;;;;;;5073984;28;20202;-67
2023/04/02 05:04:17;;;;;;;9.87;8.20;;;;;;;;;;5057564;28;20265;-67
2023/04/02 05:06:49;;;;;;;11.00;9.00;;;;;;;;;;5082577;28;20233;-68
2023/04/02 05:09:26;;;;;;;11.00;8.20;;;;;;;;;;5081346;28;20222;-67
2023/04/02 05:12:06;;;;;;;11.10;9.47;;;;;;;;;;5084639;28;20533;-67
2023/04/02 05:14:36;;;;;;;11.27;9.80;;;;;;;;;;5083891;28;20596;-67
2023/04/02 05:17:09;;;;;;;12.27;9.20;;;;;;;;;;5059605;28;20206;-68
2023/04/02 05:19:40;;;;;;;9.70;8.23;;;;;;;;;;5076685;28;20197;-67
2023/04/02 05:22:39;;;;;;;11.77;9.03;;;;;;;;;;5058987;28;20182;-67
2023/04/02 05:25:20;;;;;;;17.57;10.30;;;;;;;;;;5032771;28;20212;-68
2023/04/02 05:28:01;;;;;;;11.23;8.70;;;;;;;;;;5077053;28;20635;-67
2023/04/02 05:30:27;;;;;;;15.17;9.37;;;;;;;;;;5058832;28;20208;-67
2023/04/02 05:33:06;;;;;;;16.07;10.03;;;;;;;;;;5094397;28;20201;-67
2023/04/02 05:35:35;;;;;;;11.70;8.47;;;;;;;;;;5098799;28;20187;-68
2023/04/02 05:38:01;;;;;;;14.47;10.13;;;;;;;;;;5088951;28;20279;-67
2023/04/02 05:40:32;;;;;;;16.90;11.70;;;;;;;;;;5078891;28;20190;-68
2023/04/02 05:42:59;;;;;;;13.80;9.60;;;;;;;;;;5077776;28;20624;-67
2023/04/02 05:45:30;;;;;;;15.60;10.50;;;;;;;;;;5077405;28;20627;-68
2023/04/02 05:48:00;;;;;;;14.30;10.73;;;;;;;;;;5076348;28;20166;-67
2023/04/02 05:50:26;;;;;;;8.77;7.23;;;;;;;;;;5058647;28;20224;-67
2023/04/02 05:53:04;;;;;;;12.53;9.70;;;;;;;;;;5076337;28;20663;-67
2023/04/02 05:55:34;;;;;;;13.20;10.10;;;;;;;;;;5058571;28;20180;-68
2023/04/02 05:58:06;;;;;;;13.87;10.03;;;;;;;;;;5058084;28;20170;-67
2023/04/02 06:00:38;;;;;;;12.83;9.67;;;;;;;;;;5076340;28;20241;-68
2023/04/02 06:03:22;;;;;;;13.70;10.47;;;;;;;;;;5058195;28;20314;-67
2023/04/02 06:05:50;;;;;;;15.07;10.23;;;;;;;;;;5076458;28;20207;-67
2023/04/02 06:08:19;;;;;;;10.83;9.57;;;;;;;;;;5076021;28;20185;-67
2023/04/02 06:10:59;;;;;;;12.83;9.40;;;;;;;;;;5057872;28;20181;-67
2023/04/02 06:13:27;;;;;;;12.83;9.93;;;;;;;;;;5057935;28;20411;-67
2023/04/02 06:15:53;;;;;;;12.07;9.70;;;;;;;;;;5057022;28;20269;-67
2023/04/02 06:18:26;;;;;;;12.03;9.70;;;;;;;;;;5057491;28;20184;-67
2023/04/02 06:20:53;;;;;;;13.73;8.73;;;;;;;;;;5057773;28;20182;-67
2023/04/02 06:23:19;;;;;;;13.63;9.67;;;;;;;;;;5057533;28;20277;-67
2023/04/02 06:25:47;;;;;;;10.77;8.67;;;;;;;;;;5058313;28;20188;-67
2023/04/02 06:28:19;;;;;;;13.27;8.60;;;;;;;;;;5057445;28;20639;-68
2023/04/02 06:30:45;;;;;;;12.63;8.63;;;;;;;;;;5075688;28;20323;-67
2023/04/02 06:33:12;;;;;;;11.97;7.93;;;;;;;;;;5075484;28;20659;-67
2023/04/02 06:35:42;;;;;;;11.53;7.60;;;;;;;;;;5075619;28;20170;-67
2023/04/02 06:38:16;;;;;;;12.63;7.37;;;;;;;;;;5074723;28;20176;-67
2023/04/02 06:40:42;;;;;;;9.83;6.87;;;;;;;;;;5075220;28;20165;-67
2023/04/02 06:43:16;;;;;;;10.53;6.60;;;;;;;;;;5075263;28;20227;-68
2023/04/02 06:45:45;;;;;;;10.53;7.00;;;;;;;;;;5057219;28;20178;-67
2023/04/02 06:48:16;;;;;;;11.13;7.33;;;;;;;;;;5057032;28;20186;-67
2023/04/02 06:50:47;;;;;;;8.83;6.53;;;;;;;;;;5075356;28;20612;-67
2023/04/02 06:53:33;;;;;;;9.53;6.30;;;;;;;;;;5057092;28;20206;-67
2023/04/02 06:56:04;;;;;;;9.57;6.87;;;;;;;;;;5056952;28;20189;-68
2023/04/02 06:58:30;;;;;;;9.27;6.87;;;;;;;;;;5057526;28;20198;-67
2023/04/02 07:00:56;;;;;;;7.13;5.87;;;;;;;;;;5075885;28;20645;-69
2023/04/02 07:03:27;;;;;;;8.50;6.43;;;;;;;;;;5075335;28;20182;-68
2023/04/02 07:05:54;;;;;;;9.27;6.83;;;;;;;;;;5057284;28;20186;-67
2023/04/02 07:08:20;;;;;;;7.53;6.03;;;;;;;;;;5074794;28;20190;-67
2023/04/02 07:10:46;;;;;;;13.20;6.20;;;;;;;;;;5057569;28;20192;-66
2023/04/02 07:13:16;;;;;;;10.60;6.17;;;;;;;;;;5074921;28;20590;-67
2023/04/02 07:15:42;;;;;;;11.57;6.17;;;;;;;;;;5057092;28;20228;-67
2023/04/02 07:18:18;;;;;;;9.70;5.87;;;;;;;;;;5056813;28;20178;-68
2023/04/02 07:20:44;;;;;;;8.63;5.30;;;;;;;;;;5057684;28;20174;-66
2023/04/02 07:23:10;;;;;;;11.13;5.80;;;;;;;;;;5074756;28;20174;-67
2023/04/02 07:25:36;;;;;;;8.77;4.30;;;;;;;;;;5075327;28;20177;-67
2023/04/02 07:28:02;;;;;;;7.03;5.00;;;;;;;;;;5074578;28;20636;-67
2023/04/02 07:30:28;;;;;;;10.07;6.07;;;;;;;;;;5056613;28;20626;-68
2023/04/02 07:32:54;;;;;;;8.93;5.70;;;;;;;;;;5074230;28;20196;-68
2023/04/02 07:35:21;;;;;;;7.60;5.83;;;;;;;;;;5056518;28;20181;-68
2023/04/02 07:37:47;;;;;;;7.33;4.97;;;;;;;;;;5056563;28;20178;-68
2023/04/02 07:40:17;;;;;;;7.43;5.37;;;;;;;;;;5074461;28;20189;-68
2023/04/02 07:42:44;;;;;;;9.37;5.80;;;;;;;;;;5056645;28;20174;-68
2023/04/02 07:45:10;;;;;;;7.37;6.07;;;;;;;;;;5074185;28;20680;-68
2023/04/02 07:47:36;;;;;;;6.53;5.07;;;;;;;;;;5056218;28;20185;-68
2023/04/02 07:50:02;;;;;;;8.90;4.60;;;;;;;;;;5074362;28;20567;-69
2023/04/02 07:52:28;;;;;;;5.73;4.97;;;;;;;;;;5056481;28;20210;-69
2023/04/02 07:54:54;;;;;;;5.17;3.87;;;;;;;;;;5056840;28;20178;-68
2023/04/02 07:57:20;;;;;;;8.47;5.20;;;;;;;;;;5056599;28;20182;-67
2023/04/02 07:59:46;;;;;;;5.80;3.70;;;;;;;;;;5074179;28;20193;-68
2023/04/02 08:02:18;;;;;;;5.57;4.40;;;;;;;;;;5056274;28;20223;-67
2023/04/02 08:04:44;;;;;;;5.63;4.57;;;;;;;;;;5074208;28;20638;-68
2023/04/02 08:07:10;;;;;;;7.57;4.73;;;;;;;;;;5074352;28;20178;-68
2023/04/02 08:09:36;;;;;;;8.07;5.03;;;;;;;;;;5055791;28;20221;-67
2023/04/02 08:12:02;;;;;;;11.33;4.73;;;;;;;;;;5073975;28;20170;-68
2023/04/02 08:14:28;;;;;;;5.17;4.23;;;;;;;;;;5057502;28;20188;-68
2023/04/02 08:16:55;;;;;;;7.53;4.80;;;;;;;;;;5081971;28;20203;-68
2023/04/02 08:19:21;;;;;;;8.70;4.80;;;;;;;;;;5080055;28;20201;-68
2023/04/02 08:21:49;;;;;;;5.73;4.53;;;;;;;;;;5059365;28;20213;-67
2023/04/02 08:24:17;;;;;;;8.13;4.37;;;;;;;;;;5076173;28;20185;-68
2023/04/02 08:26:43;;;;;;;5.57;4.07;;;;;;;;;;5056070;28;20181;-68
2023/04/02 08:29:09;;;;;;;7.60;4.37;;;;;;;;;;5056102;28;20198;-68
2023/04/02 08:31:36;;;;;;;6.40;4.00;;;;;;;;;;5073455;28;20186;-68
2023/04/02 08:34:02;;;;;;;8.57;4.53;;;;;;;;;;5073721;28;20205;-68
2023/04/02 08:36:29;;;;;;;7.43;4.00;;;;;;;;;;5056104;28;20280;-68
2023/04/02 08:38:55;;;;;;;4.50;3.20;;;;;;;;;;5057047;28;20235;-67
2023/04/02 08:41:26;;;;;;;5.70;4.17;;;;;;;;;;5077290;28;20585;-68
2023/04/02 08:44:01;;;;;;;6.07;4.27;;;;;;;;;;5077409;28;20166;-68
2023/04/02 08:46:34;;;;;;;5.30;4.40;;;;;;;;;;5077754;28;20169;-68
2023/04/02 08:49:02;;;;;;;8.53;4.50;;;;;;;;;;5074864;28;20202;-69
2023/04/02 08:51:33;;;;;;;7.80;4.63;;;;;;;;;;5095586;28;20264;-69
2023/04/02 08:54:01;;;;;;;5.57;4.13;;;;;;;;;;5097643;28;20193;-68
2023/04/02 08:56:36;;;;;;;10.20;4.93;;;;;;;;;;5082577;28;20179;-68
2023/04/02 08:59:08;;;;;;;6.67;4.60;;;;;;;;;;5078428;28;20193;-68
2023/04/02 09:02:04;;;;;;;7.87;3.83;;;;;;;;;;5059822;28;20166;-68
2023/04/02 09:04:30;;;;;;;8.57;4.67;;;;;;;;;;5060942;28;20198;-68
2023/04/02 09:06:58;;;;;;;7.30;4.10;;;;;;;;;;5077872;28;20595;-68
2023/04/02 09:09:25;;;;;;;7.03;3.93;;;;;;;;;;5059669;28;20240;-68
2023/04/02 09:12:00;;;;;;;6.27;4.10;;;;;;;;;;5077413;28;20186;-68
2023/04/02 09:14:46;;;;;;;3.93;3.20;;;;;;;;;;5058818;28;20173;-68
2023/04/02 09:17:16;;;;;;;5.83;4.13;;;;;;;;;;5028729;28;20273;-68
2023/04/02 09:19:43;;;;;;;4.60;3.93;;;;;;;;;;5058488;28;20197;-68
2023/04/02 09:22:22;;;;;;;5.70;3.70;;;;;;;;;;5058792;28;20174;-68
2023/04/02 09:24:56;;;;;;;7.13;4.20;;;;;;;;;;5058477;28;20209;-68
2023/04/02 09:27:23;;;;;;;6.43;3.83;;;;;;;;;;5076453;28;20588;-68
2023/04/02 09:29:53;;;;;;;4.47;3.50;;;;;;;;;;5058153;28;20221;-68
2023/04/02 09:32:29;;;;;;;6.60;4.13;;;;;;;;;;5076175;28;20206;-68
2023/04/02 09:35:07;;;;;;;5.33;4.03;;;;;;;;;;5058571;28;20173;-68
2023/04/02 09:37:33;;;;;;;4.80;3.87;;;;;;;;;;5076295;28;20257;-68
2023/04/02 09:40:18;;;;;;;5.33;3.67;;;;;;;;;;5076303;28;20198;-68
2023/04/02 09:42:44;;;;;;;5.97;3.83;;;;;;;;;;5058138;28;20251;-68
2023/04/02 09:45:30;;;;;;;6.50;3.60;;;;;;;;;;5076191;28;20582;-68
2023/04/02 09:47:57;;;;;;;5.33;3.03;;;;;;;;;;5076320;28;20196;-68
2023/04/02 09:50:28;;;;;;;8.90;4.57;;;;;;;;;;5075963;28;20251;-68
2023/04/02 09:52:54;;;;;;;3.93;3.00;;;;;;;;;;5075822;28;20224;-68
2023/04/02 09:55:29;;;;;;;5.70;2.67;;;;;;;;;;5057880;28;20178;-68
2023/04/02 09:58:15;;;;;;;6.03;3.73;;;;;;;;;;5075871;28;20249;-68
2023/04/02 10:00:49;;;;;;;4.00;3.60;;;;;;;;;;5057679;28;20181;-68
2023/04/02 10:03:18;;;;;;;5.87;3.60;;;;;;;;;;5076040;28;20168;-68
2023/04/02 10:05:45;;;;;;;6.17;3.83;;;;;;;;;;5075824;28;20193;-68
2023/04/02 10:08:28;;;;;;;7.60;4.27;;;;;;;;;;5075200;28;20208;-68
2023/04/02 10:10:59;;;;;;;6.07;3.50;;;;;;;;;;5057937;28;20269;-68
2023/04/02 10:13:30;;;;;;;6.00;3.57;;;;;;;;;;5075903;28;20190;-69
2023/04/02 10:15:59;;;;;;;4.87;3.33;;;;;;;;;;5057445;28;20182;-69
2023/04/02 10:18:48;;;;;;;10.60;4.60;;;;;;;;;;5075551;28;20174;-68
2023/04/02 10:21:19;;;;;;;6.13;5.03;;;;;;;;;;5075602;28;20177;-68
2023/04/02 10:23:45;;;;;;;4.43;3.40;;;;;;;;;;5075699;28;20177;-68
2023/04/02 10:26:11;;;;;;;5.57;4.40;;;;;;;;;;5057468;28;20182;-68
2023/04/02 10:28:46;;;;;;;10.30;6.07;;;;;;;;;;5075774;28;20559;-69
2023/04/02 10:31:16;;;;;;;5.13;4.27;;;;;;;;;;5075953;28;20164;-69
2023/04/02 10:33:45;;;;;;;5.63;3.77;;;;;;;;;;5075309;28;20223;-68
2023/04/02 10:36:20;;;;;;;8.83;3.60;;;;;;;;;;5075508;28;20190;-68
2023/04/02 10:38:52;;;;;;;10.83;5.43;;;;;;;;;;5057324;28;20205;-68
2023/04/02 10:41:24;;;;;;;4.40;4.00;;;;;;;;;;5075230;28;20230;-69
2023/04/02 10:43:59;;;;;;;5.23;4.63;;;;;;;;;;5075243;28;20193;-69
2023/04/02 10:46:32;;;;;;;4.43;3.90;;;;;;;;;;5074694;28;20177;-68
2023/04/02 10:49:08;;;;;;;5.60;4.20;;;;;;;;;;5056564;28;20201;-69
2023/04/02 10:51:45;;;;;;;6.17;3.97;;;;;;;;;;5056582;28;20550;-68
2023/04/02 10:54:20;;;;;;;4.57;4.03;;;;;;;;;;5056599;28;20197;-69
2023/04/02 10:56:46;;;;;;;4.73;3.90;;;;;;;;;;5056508;28;20173;-69
2023/04/02 10:59:21;;;;;;;5.70;3.70;;;;;;;;;;5056428;28;20197;-69
2023/04/02 11:01:48;;;;;;;3.67;3.33;;;;;;;;;;5074444;28;20174;-68
2023/04/02 11:04:14;;;;;;;7.63;3.90;;;;;;;;;;5056538;28;20177;-68
2023/04/02 11:07:10;;;;;;;5.37;4.00;;;;;;;;;;5074417;28;20560;-68
2023/04/02 11:09:38;;;;;;;5.37;4.33;;;;;;;;;;5057232;28;20287;-69
2023/04/02 11:12:05;;;;;;;7.87;4.07;;;;;;;;;;5074190;28;20185;-68
2023/04/02 11:14:31;;;;;;;6.07;4.40;;;;;;;;;;5056325;28;20182;-68
2023/04/02 11:16:59;;;;;;;7.27;3.80;;;;;;;;;;5074870;28;20174;-68
2023/04/02 11:19:32;;;;;;;7.10;3.60;;;;;;;;;;5056218;28;20198;-69
2023/04/02 11:22:02;;;;;;;8.47;4.13;;;;;;;;;;5074844;28;20174;-68
2023/04/02 11:24:35;;;;;;;4.93;3.50;;;;;;;;;;5074674;28;20174;-68
2023/04/02 11:27:28;;;;;;;3.40;3.00;;;;;;;;;;5057505;28;20174;-69
2023/04/02 11:29:57;;;;;;;5.47;3.20;;;;;;;;;;5054162;28;20294;-68
2023/04/02 11:32:24;;;;;;;3.57;3.00;;;;;;;;;;5074524;28;20636;-68
2023/04/02 11:34:50;;;;;;;7.37;3.70;;;;;;;;;;5074446;28;20230;-68
2023/04/02 11:37:31;;;;;;;7.40;3.50;;;;;;;;;;5074475;28;20202;-68
2023/04/02 11:40:04;;;;;;;6.40;3.47;;;;;;;;;;5075815;28;20189;-68
2023/04/02 11:42:32;;;;;;;4.00;3.53;;;;;;;;;;5077951;28;20528;-68
2023/04/02 11:45:00;;;;;;;5.10;3.43;;;;;;;;;;5062488;28;20651;-68
2023/04/02 11:47:27;;;;;;;5.33;4.63;;;;;;;;;;5080607;28;20186;-69
2023/04/02 11:50:03;;;;;;;6.43;3.50;;;;;;;;;;5074455;28;20284;-68
2023/04/02 11:52:29;;;;;;;5.90;3.57;;;;;;;;;;5055918;28;20280;-69
2023/04/02 11:55:04;;;;;;;7.10;3.67;;;;;;;;;;5074323;28;20582;-68
2023/04/02 11:57:36;;;;;;;6.50;3.70;;;;;;;;;;5074305;28;20178;-68
2023/04/02 12:00:16;;;;;;;3.40;3.03;;;;;;;;;;5074162;28;20194;-69
2023/04/02 12:02:58;;;;;;;5.57;4.20;;;;;;;;;;5074351;28;20548;-68
2023/04/02 12:05:30;;;;;;;7.10;3.20;;;;;;;;;;5074241;28;20158;-68
2023/04/02 12:08:06;;;;;;;5.03;3.57;;;;;;;;;;5073545;28;20182;-68
2023/04/02 12:10:33;;;;;;;5.23;3.70;;;;;;;;;;5055887;28;20219;-69
2023/04/02 12:12:59;;;;;;;5.50;3.80;;;;;;;;;;5076951;28;20201;-68
2023/04/02 12:15:33;;;;;;;7.73;3.87;;;;;;;;;;5089950;28;20170;-69
2023/04/02 12:18:23;;;;;;;4.80;3.90;;;;;;;;;;5091541;28;20173;-69
2023/04/02 12:20:54;;;;;;;3.20;2.93;;;;;;;;;;5055958;28;20186;-68
2023/04/02 12:23:26;;;;;;;2.63;2.43;;;;;;;;;;5074944;28;20537;-68
2023/04/02 12:25:57;;;;;;;5.50;3.30;;;;;;;;;;5074741;28;20181;-68
2023/04/02 12:28:23;;;;;;;3.37;2.83;;;;;;;;;;5074361;28;20170;-68
2023/04/02 12:30:50;;;;;;;4.40;3.70;;;;;;;;;;5073496;28;20178;-67
2023/04/02 12:33:19;;;;;;;5.67;2.43;;;;;;;;;;5073324;28;20205;-68
2023/04/02 12:35:49;;;;;;;4.03;2.93;;;;;;;;;;5057610;28;20717;-68
2023/04/02 12:38:38;;;;;;;4.83;2.50;;;;;;;;;;5058175;28;20185;-68
2023/04/02 12:41:05;;;;;;;3.67;2.40;;;;;;;;;;5075133;28;20216;-68
2023/04/02 12:43:36;;;;;;;3.80;2.67;;;;;;;;;;5056738;28;20277;-68
2023/04/02 12:46:04;;;;;;;3.60;2.70;;;;;;;;;;5073792;28;20208;-68
2023/04/02 12:48:31;;;;;;;4.60;2.70;;;;;;;;;;5055525;28;20206;-68
2023/04/02 12:50:58;;;;;;;2.70;2.50;;;;;;;;;;5055272;28;20178;-67
2023/04/02 12:53:26;;;;;;;4.63;2.60;;;;;;;;;;5055651;28;20206;-67
2023/04/02 12:55:53;;;;;;;3.70;2.63;;;;;;;;;;5055431;28;20189;-68
2023/04/02 12:58:37;;;;;;;3.30;2.50;;;;;;;;;;5073713;28;20299;-68
2023/04/02 13:01:10;;;;;;;4.50;2.50;;;;;;;;;;5054969;28;20205;-68
2023/04/02 13:03:36;;;;;;;5.63;2.90;;;;;;;;;;5073302;28;20204;-68
2023/04/02 13:06:02;;;;;;;3.47;2.53;;;;;;;;;;5073596;28;20182;-68
2023/04/02 13:08:30;;;;;;;10.57;7.13;;;;;;;;;;5054813;28;20202;-69
2023/04/02 13:10:58;;;;;;;8.20;5.17;;;;;;;;;;5072708;28;20253;-68
2023/04/02 13:13:29;;;;;;;4.33;3.10;;;;;;;;;;5072727;28;20216;-70
2023/04/02 13:16:07;;;;;;;21.63;11.03;;;;;;;;;;5073236;28;20663;-68
2023/04/02 13:18:35;;;;;;;7.17;5.33;;;;;;;;;;5055057;28;20193;-71
2023/04/02 13:21:04;;;;;;;5.63;4.20;;;;;;;;;;5055659;28;20259;-71
2023/04/02 13:23:31;;;;;;;7.10;3.47;;;;;;;;;;5073260;28;20177;-71
2023/04/02 13:25:58;;;;;;;8.80;6.30;;;;;;;;;;5058306;28;20190;-71
2023/04/02 13:28:24;;;;;;;5.00;4.50;;;;;;;;;;5058935;28;20274;-70
2023/04/02 13:30:50;;;;;;;5.70;2.77;;;;;;;;;;5076712;28;20209;-70
2023/04/02 13:33:16;;;;;;;6.37;4.47;;;;;;;;;;5076392;28;20673;-70
2023/04/02 13:35:42;;;;;;;4.00;2.63;;;;;;;;;;5077561;28;20584;-71
2023/04/02 13:38:08;;;;;;;5.10;4.37;;;;;;;;;;5077101;28;20205;-71
2023/04/02 13:40:36;;;;;;;4.47;2.97;;;;;;;;;;5058317;28;20216;-72
2023/04/02 13:43:02;;;;;;;8.60;5.40;;;;;;;;;;5076693;28;20174;-71
2023/04/02 13:45:30;;;;;;;9.60;6.80;;;;;;;;;;5076337;28;20182;-71
2023/04/02 13:47:59;;;;;;;5.93;3.40;;;;;;;;;;5057949;28;20185;-71
2023/04/02 13:50:26;;;;;;;3.37;2.27;;;;;;;;;;5057998;28;20687;-72
2023/04/02 13:52:53;;;;;;;5.17;2.30;;;;;;;;;;5075373;28;20213;-71
2023/04/02 13:55:20;;;;;;;5.97;2.80;;;;;;;;;;5075474;28;20174;-72
2023/04/02 13:57:47;;;;;;;2.53;2.33;;;;;;;;;;5075665;28;20662;-71
2023/04/02 14:00:13;;;;;;;4.40;2.70;;;;;;;;;;5057444;28;20280;-72
2023/04/02 14:02:42;;;;;;;5.93;2.90;;;;;;;;;;5075589;28;20178;-72
2023/04/02 14:05:17;;;;;;;3.23;2.60;;;;;;;;;;5075710;28;20182;-71
2023/04/02 14:07:50;;;;;;;3.40;3.10;;;;;;;;;;5058420;28;20184;-71
2023/04/02 14:10:21;;;;;;;2.97;2.70;;;;;;;;;;5099610;22;20710;-68
2023/04/02 14:12:50;;;;;;;4.80;3.00;;;;;;;;;;5058245;28;20190;-68
2023/04/02 14:15:27;;;;;;;3.43;2.67;;;;;;;;;;5075841;28;20170;-70
2023/04/02 14:18:16;;;;;;;4.43;2.80;;;;;;;;;;5076076;28;20157;-70
2023/04/02 14:20:47;;;;;;;4.40;2.50;;;;;;;;;;5076037;28;20190;-69
2023/04/02 14:23:32;;;;;;;3.27;2.33;;;;;;;;;;5057781;28;20192;-70
2023/04/02 14:26:17;;;;;;;6.50;2.90;;;;;;;;;;5075944;28;20235;-70
2023/04/02 14:28:57;;;;;;;4.37;3.40;;;;;;;;;;5057509;28;20255;-73
2023/04/02 14:31:33;;;;;;;3.33;2.70;;;;;;;;;;5076664;28;20197;-69
2023/04/02 14:34:17;;;;;;;4.90;2.70;;;;;;;;;;5058645;28;20209;-71
2023/04/02 14:37:06;;;;;;;3.43;2.53;;;;;;;;;;5075684;28;20677;-69
2023/04/02 14:39:35;;;;;;;3.77;2.63;;;;;;;;;;5075889;28;20243;-70
2023/04/02 14:42:06;;;;;;;3.40;2.80;;;;;;;;;;5075759;28;20674;-70
2023/04/02 14:44:36;;;;;;;3.30;2.50;;;;;;;;;;5057150;28;20210;-70
2023/04/02 14:47:13;;;;;;;3.93;2.43;;;;;;;;;;5075315;28;20170;-71
2023/04/02 14:49:42;;;;;;;4.37;2.83;;;;;;;;;;5075584;28;20204;-70
2023/04/02 14:52:16;;;;;;;3.53;2.53;;;;;;;;;;5075390;28;20651;-70
2023/04/02 14:54:52;;;;;;;3.43;2.50;;;;;;;;;;5059595;28;20189;-71
2023/04/02 14:57:21;;;;;;;3.53;2.70;;;;;;;;;;5041458;28;20212;-69
2023/04/02 14:59:57;;;;;;;3.53;2.03;;;;;;;;;;5076145;28;20276;-68
2023/04/02 15:02:29;;;;;;;3.23;2.43;;;;;;;;;;5058357;28;20185;-68
2023/04/02 15:05:00;;;;;;;2.93;2.40;;;;;;;;;;5075503;28;20170;-69